sensor_id;sensor_type;location;lat;lon;timestamp;temperature;humidity
12309;DHT22;6217;48.150;17.142;2022-12-10T00:02:27;6.60;99.90
12309;DHT22;6217;48.150;17.142;2022-12-10T00:06:37;6.60;99.90
12309;DHT22;6217;48.150;17.142;2022-12-10T00:10:43;6.60;99.90
12309;DHT22;6217;48.150;17.142;2022-12-10T00:14:49;6.50;99.90
12309;DHT22;6217;48.150;17.142;2022-12-10T00:18:55;6.40;99.90
12309;DHT22;6217;48.150;17.142;2022-12-10T00:23:00;6.40;99.90
12309;DHT22;6217;48.150;17.142;2022-12-10T00:27:06;6.50;99.90
12309;DHT22;6217;48.150;17.142;2022-12-10T00:31:14;6.40;99.90
12309;DHT22;6217;48.150;17.142;2022-12-10T00:35:20;6.30;99.90
12309;DHT22;6217;48.150;17.142;2022-12-10T00:39:27;6.20;99.90
12309;DHT22;6217;48.150;17.142;2022-12-10T00:43:33;6.10;99.90
12309;DHT22;6217;48.150;17.142;2022-12-10T00:47:39;6.00;99.90
12309;DHT22;6217;48.150;17.142;2022-12-10T00:51:45;5.90;99.90
12309;DHT22;6217;48.150;17.142;2022-12-10T00:55:51;5.90;99.90
12309;DHT22;6217;48.150;17.142;2022-12-10T00:59:57;6.00;99.90
12309;DHT22;6217;48.150;17.142;2022-12-10T01:04:09;6.00;99.90
12309;DHT22;6217;48.150;17.142;2022-12-10T01:08:16;5.90;99.90
12309;DHT22;6217;48.150;17.142;2022-12-10T01:12:21;5.90;99.90
12309;DHT22;6217;48.150;17.142;2022-12-10T01:16:30;6.00;99.90
12309;DHT22;6217;48.150;17.142;2022-12-10T01:20:36;6.00;99.90
12309;DHT22;6217;48.150;17.142;2022-12-10T01:24:42;5.90;99.90
12309;DHT22;6217;48.150;17.142;2022-12-10T01:28:49;5.90;99.90
12309;DHT22;6217;48.150;17.142;2022-12-10T01:32:56;5.80;99.90
12309;DHT22;6217;48.150;17.142;2022-12-10T01:37:02;5.90;99.90
12309;DHT22;6217;48.150;17.142;2022-12-10T01:41:24;6.00;99.90
12309;DHT22;6217;48.150;17.142;2022-12-10T01:45:30;6.00;99.90
12309;DHT22;6217;48.150;17.142;2022-12-10T01:49:39;6.00;99.90
12309;DHT22;6217;48.150;17.142;2022-12-10T01:53:46;6.00;99.90
12309;DHT22;6217;48.150;17.142;2022-12-10T01:57:53;5.90;99.90
12309;DHT22;6217;48.150;17.142;2022-12-10T02:02:38;5.90;99.90
12309;DHT22;6217;48.150;17.142;2022-12-10T02:11:22;5.80;99.90
12309;DHT22;6217;48.150;17.142;2022-12-10T02:15:39;5.70;99.90
12309;DHT22;6217;48.150;17.142;2022-12-10T02:24:14;5.80;99.90
12309;DHT22;6217;48.150;17.142;2022-12-10T02:28:22;5.80;99.90
12309;DHT22;6217;48.150;17.142;2022-12-10T02:32:35;5.60;99.90
12309;DHT22;6217;48.150;17.142;2022-12-10T02:36:46;5.60;99.90
12309;DHT22;6217;48.150;17.142;2022-12-10T02:40:58;5.50;99.90
12309;DHT22;6217;48.150;17.142;2022-12-10T02:45:07;5.50;99.90
12309;DHT22;6217;48.150;17.142;2022-12-10T02:49:15;5.50;99.90
12309;DHT22;6217;48.150;17.142;2022-12-10T02:53:22;5.40;99.90
12309;DHT22;6217;48.150;17.142;2022-12-10T02:57:34;5.50;99.90
12309;DHT22;6217;48.150;17.142;2022-12-10T03:02:02;5.50;99.90
12309;DHT22;6217;48.150;17.142;2022-12-10T03:14:38;5.50;99.90
12309;DHT22;6217;48.150;17.142;2022-12-10T03:18:46;5.40;99.90
12309;DHT22;6217;48.150;17.142;2022-12-10T03:22:53;5.40;99.90
12309;DHT22;6217;48.150;17.142;2022-12-10T03:26:59;5.30;99.90
12309;DHT22;6217;48.150;17.142;2022-12-10T03:31:07;5.20;99.90
12309;DHT22;6217;48.150;17.142;2022-12-10T03:35:17;5.20;99.90
12309;DHT22;6217;48.150;17.142;2022-12-10T03:39:24;5.30;99.90
12309;DHT22;6217;48.150;17.142;2022-12-10T03:43:33;5.30;99.90
12309;DHT22;6217;48.150;17.142;2022-12-10T03:47:39;5.40;99.90
12309;DHT22;6217;48.150;17.142;2022-12-10T03:51:45;5.40;99.90
12309;DHT22;6217;48.150;17.142;2022-12-10T03:55:51;5.40;99.90
12309;DHT22;6217;48.150;17.142;2022-12-10T03:59:56;5.40;99.90
12309;DHT22;6217;48.150;17.142;2022-12-10T04:04:04;5.40;99.90
12309;DHT22;6217;48.150;17.142;2022-12-10T04:08:13;5.40;99.70
12309;DHT22;6217;48.150;17.142;2022-12-10T04:12:19;5.30;99.90
12309;DHT22;6217;48.150;17.142;2022-12-10T04:16:31;5.20;99.90
12309;DHT22;6217;48.150;17.142;2022-12-10T04:21:02;5.30;99.60
12309;DHT22;6217;48.150;17.142;2022-12-10T04:25:27;5.20;99.90
12309;DHT22;6217;48.150;17.142;2022-12-10T04:29:52;5.20;99.70
12309;DHT22;6217;48.150;17.142;2022-12-10T04:33:58;5.10;99.80
12309;DHT22;6217;48.150;17.142;2022-12-10T04:38:04;5.10;99.90
12309;DHT22;6217;48.150;17.142;2022-12-10T04:42:10;5.10;99.90
12309;DHT22;6217;48.150;17.142;2022-12-10T04:46:16;5.10;99.80
12309;DHT22;6217;48.150;17.142;2022-12-10T04:50:22;5.00;99.70
12309;DHT22;6217;48.150;17.142;2022-12-10T04:54:28;5.00;99.80
12309;DHT22;6217;48.150;17.142;2022-12-10T04:58:34;5.00;99.80
12309;DHT22;6217;48.150;17.142;2022-12-10T05:02:40;5.00;99.70
12309;DHT22;6217;48.150;17.142;2022-12-10T05:06:48;5.00;99.60
12309;DHT22;6217;48.150;17.142;2022-12-10T05:10:54;4.90;99.60
12309;DHT22;6217;48.150;17.142;2022-12-10T05:15:00;4.90;99.80
12309;DHT22;6217;48.150;17.142;2022-12-10T05:19:06;4.90;99.60
12309;DHT22;6217;48.150;17.142;2022-12-10T05:23:13;5.00;99.60
12309;DHT22;6217;48.150;17.142;2022-12-10T05:27:40;5.00;99.40
12309;DHT22;6217;48.150;17.142;2022-12-10T05:31:49;5.00;99.50
12309;DHT22;6217;48.150;17.142;2022-12-10T05:36:01;4.90;99.20
12309;DHT22;6217;48.150;17.142;2022-12-10T05:40:08;4.90;99.20
12309;DHT22;6217;48.150;17.142;2022-12-10T05:44:14;4.80;99.30
12309;DHT22;6217;48.150;17.142;2022-12-10T05:48:20;4.80;99.50
12309;DHT22;6217;48.150;17.142;2022-12-10T05:52:26;4.90;99.40
12309;DHT22;6217;48.150;17.142;2022-12-10T05:56:32;4.90;99.20
12309;DHT22;6217;48.150;17.142;2022-12-10T06:00:39;4.90;99.40
12309;DHT22;6217;48.150;17.142;2022-12-10T06:04:45;5.00;99.20
12309;DHT22;6217;48.150;17.142;2022-12-10T06:08:52;5.00;99.10
12309;DHT22;6217;48.150;17.142;2022-12-10T06:12:58;4.90;99.10
12309;DHT22;6217;48.150;17.142;2022-12-10T06:17:04;4.90;99.10
12309;DHT22;6217;48.150;17.142;2022-12-10T06:21:13;4.90;99.30
12309;DHT22;6217;48.150;17.142;2022-12-10T06:25:19;5.00;99.40
12309;DHT22;6217;48.150;17.142;2022-12-10T06:29:25;5.10;99.10
12309;DHT22;6217;48.150;17.142;2022-12-10T06:33:31;5.20;99.00
12309;DHT22;6217;48.150;17.142;2022-12-10T06:37:37;5.20;98.90
12309;DHT22;6217;48.150;17.142;2022-12-10T06:41:43;5.20;99.00
12309;DHT22;6217;48.150;17.142;2022-12-10T06:45:51;5.30;98.80
12309;DHT22;6217;48.150;17.142;2022-12-10T06:49:56;5.30;98.90
12309;DHT22;6217;48.150;17.142;2022-12-10T06:54:05;5.40;98.80
12309;DHT22;6217;48.150;17.142;2022-12-10T06:58:11;5.50;98.80
12309;DHT22;6217;48.150;17.142;2022-12-10T07:02:17;5.40;98.50
12309;DHT22;6217;48.150;17.142;2022-12-10T07:06:27;5.40;98.70
12309;DHT22;6217;48.150;17.142;2022-12-10T07:10:34;5.40;98.80
12309;DHT22;6217;48.150;17.142;2022-12-10T07:14:41;5.60;98.60
12309;DHT22;6217;48.150;17.142;2022-12-10T07:18:48;5.70;98.60
12309;DHT22;6217;48.150;17.142;2022-12-10T07:22:54;5.50;98.30
12309;DHT22;6217;48.150;17.142;2022-12-10T07:27:00;5.40;98.40
12309;DHT22;6217;48.150;17.142;2022-12-10T07:31:08;5.60;98.60
12309;DHT22;6217;48.150;17.142;2022-12-10T07:35:14;5.70;98.40
12309;DHT22;6217;48.150;17.142;2022-12-10T07:39:20;5.60;98.30
12309;DHT22;6217;48.150;17.142;2022-12-10T07:43:26;5.70;98.30
12309;DHT22;6217;48.150;17.142;2022-12-10T07:47:35;5.80;98.30
12309;DHT22;6217;48.150;17.142;2022-12-10T07:51:48;5.90;98.10
12309;DHT22;6217;48.150;17.142;2022-12-10T07:55:55;6.00;98.00
12309;DHT22;6217;48.150;17.142;2022-12-10T08:00:02;6.00;98.00
12309;DHT22;6217;48.150;17.142;2022-12-10T08:04:17;6.10;97.70
12309;DHT22;6217;48.150;17.142;2022-12-10T08:08:23;6.00;97.60
12309;DHT22;6217;48.150;17.142;2022-12-10T08:12:29;5.90;97.70
12309;DHT22;6217;48.150;17.142;2022-12-10T08:16:35;6.00;97.70
12309;DHT22;6217;48.150;17.142;2022-12-10T08:20:41;6.10;97.70
12309;DHT22;6217;48.150;17.142;2022-12-10T08:24:47;6.10;97.50
12309;DHT22;6217;48.150;17.142;2022-12-10T08:28:53;6.00;97.40
12309;DHT22;6217;48.150;17.142;2022-12-10T08:33:00;6.00;97.50
12309;DHT22;6217;48.150;17.142;2022-12-10T08:37:05;6.10;97.50
12309;DHT22;6217;48.150;17.142;2022-12-10T08:41:19;6.20;97.50
12309;DHT22;6217;48.150;17.142;2022-12-10T08:45:25;6.10;97.80
12309;DHT22;6217;48.150;17.142;2022-12-10T08:49:31;6.30;97.20
12309;DHT22;6217;48.150;17.142;2022-12-10T08:53:37;6.30;97.00
12309;DHT22;6217;48.150;17.142;2022-12-10T08:57:43;6.30;96.90
12309;DHT22;6217;48.150;17.142;2022-12-10T09:01:48;6.20;96.80
12309;DHT22;6217;48.150;17.142;2022-12-10T09:05:56;6.30;96.90
12309;DHT22;6217;48.150;17.142;2022-12-10T09:10:02;6.30;97.00
12309;DHT22;6217;48.150;17.142;2022-12-10T09:14:08;6.30;96.90
12309;DHT22;6217;48.150;17.142;2022-12-10T09:18:13;6.20;96.70
12309;DHT22;6217;48.150;17.142;2022-12-10T09:22:19;6.30;97.10
12309;DHT22;6217;48.150;17.142;2022-12-10T09:26:25;6.40;97.00
12309;DHT22;6217;48.150;17.142;2022-12-10T09:30:32;6.50;97.20
12309;DHT22;6217;48.150;17.142;2022-12-10T09:34:37;6.50;96.70
12309;DHT22;6217;48.150;17.142;2022-12-10T09:38:44;6.50;96.50
12309;DHT22;6217;48.150;17.142;2022-12-10T09:43:03;6.50;96.70
12309;DHT22;6217;48.150;17.142;2022-12-10T09:47:11;6.60;96.60
12309;DHT22;6217;48.150;17.142;2022-12-10T09:55:36;6.60;96.20
12309;DHT22;6217;48.150;17.142;2022-12-10T09:59:46;6.50;96.30
12309;DHT22;6217;48.150;17.142;2022-12-10T10:03:53;6.60;96.40
12309;DHT22;6217;48.150;17.142;2022-12-10T10:08:02;6.60;96.60
12309;DHT22;6217;48.150;17.142;2022-12-10T10:12:13;6.60;96.00
12309;DHT22;6217;48.150;17.142;2022-12-10T10:16:37;6.50;96.60
12309;DHT22;6217;48.150;17.142;2022-12-10T10:20:44;6.60;96.50
12309;DHT22;6217;48.150;17.142;2022-12-10T10:24:50;6.70;96.50
12309;DHT22;6217;48.150;17.142;2022-12-10T10:29:00;6.70;96.20
12309;DHT22;6217;48.150;17.142;2022-12-10T10:33:09;6.60;96.10
12309;DHT22;6217;48.150;17.142;2022-12-10T10:41:38;6.50;95.80
12309;DHT22;6217;48.150;17.142;2022-12-10T10:45:54;6.30;96.20
12309;DHT22;6217;48.150;17.142;2022-12-10T10:50:04;6.30;96.30
12309;DHT22;6217;48.150;17.142;2022-12-10T10:54:10;6.40;96.20
12309;DHT22;6217;48.150;17.142;2022-12-10T10:58:21;6.40;96.20
12309;DHT22;6217;48.150;17.142;2022-12-10T11:02:31;6.40;96.00
12309;DHT22;6217;48.150;17.142;2022-12-10T11:06:40;6.20;96.00
12309;DHT22;6217;48.150;17.142;2022-12-10T11:10:48;6.10;95.90
12309;DHT22;6217;48.150;17.142;2022-12-10T11:14:55;6.10;96.10
12309;DHT22;6217;48.150;17.142;2022-12-10T11:19:02;6.20;96.10
12309;DHT22;6217;48.150;17.142;2022-12-10T11:23:12;6.20;96.00
12309;DHT22;6217;48.150;17.142;2022-12-10T11:27:38;6.30;95.80
12309;DHT22;6217;48.150;17.142;2022-12-10T11:36:23;6.30;95.90
12309;DHT22;6217;48.150;17.142;2022-12-10T11:40:50;6.40;95.90
12309;DHT22;6217;48.150;17.142;2022-12-10T12:07:08;6.40;95.30
12309;DHT22;6217;48.150;17.142;2022-12-10T12:15:58;6.20;95.30
12309;DHT22;6217;48.150;17.142;2022-12-10T12:24:42;6.10;95.30
12309;DHT22;6217;48.150;17.142;2022-12-10T12:28:56;6.10;95.50
12309;DHT22;6217;48.150;17.142;2022-12-10T12:33:29;6.20;95.50
12309;DHT22;6217;48.150;17.142;2022-12-10T12:37:47;6.20;95.20
12309;DHT22;6217;48.150;17.142;2022-12-10T12:46:11;6.00;95.40
12309;DHT22;6217;48.150;17.142;2022-12-10T12:54:26;6.20;95.50
12309;DHT22;6217;48.150;17.142;2022-12-10T13:03:17;6.30;95.20
12309;DHT22;6217;48.150;17.142;2022-12-10T13:11:34;6.50;94.90
12309;DHT22;6217;48.150;17.142;2022-12-10T13:15:41;6.40;95.00
12309;DHT22;6217;48.150;17.142;2022-12-10T13:19:49;6.30;94.80
12309;DHT22;6217;48.150;17.142;2022-12-10T13:24:12;6.20;94.90
12309;DHT22;6217;48.150;17.142;2022-12-10T13:28:49;6.00;95.30
12309;DHT22;6217;48.150;17.142;2022-12-10T13:33:18;5.90;95.00
12309;DHT22;6217;48.150;17.142;2022-12-10T13:37:30;6.00;95.20
12309;DHT22;6217;48.150;17.142;2022-12-10T13:46:31;6.10;95.10
12309;DHT22;6217;48.150;17.142;2022-12-10T13:55:05;6.10;95.20
12309;DHT22;6217;48.150;17.142;2022-12-10T13:59:21;5.90;95.10
12309;DHT22;6217;48.150;17.142;2022-12-10T14:07:48;6.00;94.90
12309;DHT22;6217;48.150;17.142;2022-12-10T14:11:59;6.00;95.20
12309;DHT22;6217;48.150;17.142;2022-12-10T14:16:11;6.00;95.10
12309;DHT22;6217;48.150;17.142;2022-12-10T14:20:21;6.00;94.90
12309;DHT22;6217;48.150;17.142;2022-12-10T14:24:37;6.00;95.10
12309;DHT22;6217;48.150;17.142;2022-12-10T14:28:46;5.90;94.80
12309;DHT22;6217;48.150;17.142;2022-12-10T14:32:54;6.00;95.20
12309;DHT22;6217;48.150;17.142;2022-12-10T14:37:03;6.10;95.10
12309;DHT22;6217;48.150;17.142;2022-12-10T14:41:11;6.20;95.00
12309;DHT22;6217;48.150;17.142;2022-12-10T14:45:19;6.10;94.80
12309;DHT22;6217;48.150;17.142;2022-12-10T14:49:26;5.90;94.90
12309;DHT22;6217;48.150;17.142;2022-12-10T14:53:32;6.00;95.00
12309;DHT22;6217;48.150;17.142;2022-12-10T14:57:41;5.90;95.00
12309;DHT22;6217;48.150;17.142;2022-12-10T15:01:51;6.00;95.10
12309;DHT22;6217;48.150;17.142;2022-12-10T15:06:02;5.90;94.90
12309;DHT22;6217;48.150;17.142;2022-12-10T15:10:19;5.90;95.00
12309;DHT22;6217;48.150;17.142;2022-12-10T15:14:28;5.90;94.90
12309;DHT22;6217;48.150;17.142;2022-12-10T15:18:38;5.80;94.80
12309;DHT22;6217;48.150;17.142;2022-12-10T15:22:44;5.80;95.00
12309;DHT22;6217;48.150;17.142;2022-12-10T15:26:51;5.80;95.00
12309;DHT22;6217;48.150;17.142;2022-12-10T15:35:35;6.00;95.00
12309;DHT22;6217;48.150;17.142;2022-12-10T15:39:54;6.00;94.80
12309;DHT22;6217;48.150;17.142;2022-12-10T15:44:05;6.00;94.90
12309;DHT22;6217;48.150;17.142;2022-12-10T15:48:12;6.00;94.90
12309;DHT22;6217;48.150;17.142;2022-12-10T15:52:28;6.00;94.90
12309;DHT22;6217;48.150;17.142;2022-12-10T15:56:36;6.00;94.90
12309;DHT22;6217;48.150;17.142;2022-12-10T16:00:42;6.00;94.70
12309;DHT22;6217;48.150;17.142;2022-12-10T16:04:56;6.00;94.80
12309;DHT22;6217;48.150;17.142;2022-12-10T16:09:02;5.90;94.70
12309;DHT22;6217;48.150;17.142;2022-12-10T16:13:25;5.80;94.80
12309;DHT22;6217;48.150;17.142;2022-12-10T16:17:31;5.90;94.80
12309;DHT22;6217;48.150;17.142;2022-12-10T16:21:40;5.80;94.80
12309;DHT22;6217;48.150;17.142;2022-12-10T16:25:47;5.70;94.90
12309;DHT22;6217;48.150;17.142;2022-12-10T16:29:52;5.70;95.10
12309;DHT22;6217;48.150;17.142;2022-12-10T16:33:58;5.90;95.00
12309;DHT22;6217;48.150;17.142;2022-12-10T16:38:04;5.80;94.90
12309;DHT22;6217;48.150;17.142;2022-12-10T16:42:11;5.90;94.90
12309;DHT22;6217;48.150;17.142;2022-12-10T16:46:17;6.00;94.90
12309;DHT22;6217;48.150;17.142;2022-12-10T16:50:23;6.00;94.80
12309;DHT22;6217;48.150;17.142;2022-12-10T16:54:29;6.00;94.80
12309;DHT22;6217;48.150;17.142;2022-12-10T16:58:35;6.00;94.80
12309;DHT22;6217;48.150;17.142;2022-12-10T17:02:43;6.10;94.70
12309;DHT22;6217;48.150;17.142;2022-12-10T17:06:51;6.00;94.70
12309;DHT22;6217;48.150;17.142;2022-12-10T17:11:19;6.00;94.80
12309;DHT22;6217;48.150;17.142;2022-12-10T17:15:47;6.00;94.60
12309;DHT22;6217;48.150;17.142;2022-12-10T17:19:53;5.90;94.80
12309;DHT22;6217;48.150;17.142;2022-12-10T17:24:01;5.90;94.80
12309;DHT22;6217;48.150;17.142;2022-12-10T17:28:13;5.80;94.80
12309;DHT22;6217;48.150;17.142;2022-12-10T17:32:21;5.70;94.90
12309;DHT22;6217;48.150;17.142;2022-12-10T17:36:27;5.70;94.90
12309;DHT22;6217;48.150;17.142;2022-12-10T17:40:33;5.50;94.70
12309;DHT22;6217;48.150;17.142;2022-12-10T17:44:42;5.50;95.00
12309;DHT22;6217;48.150;17.142;2022-12-10T17:48:51;5.50;94.80
12309;DHT22;6217;48.150;17.142;2022-12-10T17:52:57;5.40;94.80
12309;DHT22;6217;48.150;17.142;2022-12-10T17:57:19;5.30;95.00
12309;DHT22;6217;48.150;17.142;2022-12-10T18:01:25;5.30;95.00
12309;DHT22;6217;48.150;17.142;2022-12-10T18:05:34;5.40;95.00
12309;DHT22;6217;48.150;17.142;2022-12-10T18:09:42;5.30;94.80
12309;DHT22;6217;48.150;17.142;2022-12-10T18:13:49;5.40;94.90
12309;DHT22;6217;48.150;17.142;2022-12-10T18:18:05;5.30;94.90
12309;DHT22;6217;48.150;17.142;2022-12-10T18:22:12;5.30;95.00
12309;DHT22;6217;48.150;17.142;2022-12-10T18:26:21;5.20;94.90
12309;DHT22;6217;48.150;17.142;2022-12-10T18:30:30;5.20;95.00
12309;DHT22;6217;48.150;17.142;2022-12-10T18:34:36;5.20;95.00
12309;DHT22;6217;48.150;17.142;2022-12-10T18:39:24;5.30;95.00
12309;DHT22;6217;48.150;17.142;2022-12-10T18:43:31;5.40;94.90
12309;DHT22;6217;48.150;17.142;2022-12-10T18:47:36;5.30;94.70
12309;DHT22;6217;48.150;17.142;2022-12-10T18:51:43;5.20;94.80
12309;DHT22;6217;48.150;17.142;2022-12-10T18:55:48;5.20;94.80
12309;DHT22;6217;48.150;17.142;2022-12-10T18:59:54;5.10;94.90
12309;DHT22;6217;48.150;17.142;2022-12-10T19:04:00;5.00;95.00
12309;DHT22;6217;48.150;17.142;2022-12-10T19:08:10;5.10;94.90
12309;DHT22;6217;48.150;17.142;2022-12-10T19:12:16;5.10;95.10
12309;DHT22;6217;48.150;17.142;2022-12-10T19:16:24;5.10;94.90
12309;DHT22;6217;48.150;17.142;2022-12-10T19:20:36;5.00;94.80
12309;DHT22;6217;48.150;17.142;2022-12-10T19:24:42;5.00;94.90
12309;DHT22;6217;48.150;17.142;2022-12-10T19:28:52;5.10;95.10
12309;DHT22;6217;48.150;17.142;2022-12-10T19:32:58;5.00;94.80
12309;DHT22;6217;48.150;17.142;2022-12-10T19:37:04;4.90;94.90
12309;DHT22;6217;48.150;17.142;2022-12-10T19:41:10;4.90;94.80
12309;DHT22;6217;48.150;17.142;2022-12-10T19:45:16;4.90;94.80
12309;DHT22;6217;48.150;17.142;2022-12-10T19:49:23;4.80;94.90
12309;DHT22;6217;48.150;17.142;2022-12-10T19:53:29;4.90;94.90
12309;DHT22;6217;48.150;17.142;2022-12-10T19:57:35;4.90;94.80
12309;DHT22;6217;48.150;17.142;2022-12-10T20:01:42;4.90;94.90
12309;DHT22;6217;48.150;17.142;2022-12-10T20:05:52;4.90;94.80
12309;DHT22;6217;48.150;17.142;2022-12-10T20:09:58;4.90;94.80
12309;DHT22;6217;48.150;17.142;2022-12-10T20:14:04;4.80;94.80
12309;DHT22;6217;48.150;17.142;2022-12-10T20:18:09;4.90;94.80
12309;DHT22;6217;48.150;17.142;2022-12-10T20:22:15;4.90;94.90
12309;DHT22;6217;48.150;17.142;2022-12-10T20:26:35;5.00;94.80
12309;DHT22;6217;48.150;17.142;2022-12-10T20:30:42;5.00;94.70
12309;DHT22;6217;48.150;17.142;2022-12-10T20:34:48;5.00;94.70
12309;DHT22;6217;48.150;17.142;2022-12-10T20:38:54;5.10;94.60
12309;DHT22;6217;48.150;17.142;2022-12-10T20:43:00;5.00;94.50
12309;DHT22;6217;48.150;17.142;2022-12-10T20:47:08;5.00;94.60
12309;DHT22;6217;48.150;17.142;2022-12-10T20:51:17;4.90;94.40
12309;DHT22;6217;48.150;17.142;2022-12-10T20:55:33;4.90;94.30
12309;DHT22;6217;48.150;17.142;2022-12-10T20:59:40;4.80;94.30
12309;DHT22;6217;48.150;17.142;2022-12-10T21:03:52;4.80;94.30
12309;DHT22;6217;48.150;17.142;2022-12-10T21:07:58;4.80;94.30
12309;DHT22;6217;48.150;17.142;2022-12-10T21:12:05;4.80;94.20
12309;DHT22;6217;48.150;17.142;2022-12-10T21:16:21;4.80;94.10
12309;DHT22;6217;48.150;17.142;2022-12-10T21:20:33;4.90;93.90
12309;DHT22;6217;48.150;17.142;2022-12-10T21:24:39;4.70;93.80
12309;DHT22;6217;48.150;17.142;2022-12-10T21:28:45;4.70;93.70
12309;DHT22;6217;48.150;17.142;2022-12-10T21:32:51;4.60;93.60
12309;DHT22;6217;48.150;17.142;2022-12-10T21:36:57;4.70;93.70
12309;DHT22;6217;48.150;17.142;2022-12-10T21:41:09;4.70;93.60
12309;DHT22;6217;48.150;17.142;2022-12-10T21:45:33;4.70;93.50
12309;DHT22;6217;48.150;17.142;2022-12-10T21:49:39;4.70;93.40
12309;DHT22;6217;48.150;17.142;2022-12-10T21:53:45;4.70;93.20
12309;DHT22;6217;48.150;17.142;2022-12-10T21:57:52;4.70;93.20
12309;DHT22;6217;48.150;17.142;2022-12-10T22:01:58;4.60;93.10
12309;DHT22;6217;48.150;17.142;2022-12-10T22:06:04;4.60;93.30
12309;DHT22;6217;48.150;17.142;2022-12-10T22:10:11;4.80;93.40
12309;DHT22;6217;48.150;17.142;2022-12-10T22:14:18;4.80;93.20
12309;DHT22;6217;48.150;17.142;2022-12-10T22:18:23;4.90;93.10
12309;DHT22;6217;48.150;17.142;2022-12-10T22:22:31;4.90;93.10
12309;DHT22;6217;48.150;17.142;2022-12-10T22:26:37;4.80;93.10
12309;DHT22;6217;48.150;17.142;2022-12-10T22:30:43;4.80;93.10
12309;DHT22;6217;48.150;17.142;2022-12-10T22:34:48;4.80;93.10
12309;DHT22;6217;48.150;17.142;2022-12-10T22:38:54;4.70;93.00
12309;DHT22;6217;48.150;17.142;2022-12-10T22:43:12;4.60;93.00
12309;DHT22;6217;48.150;17.142;2022-12-10T22:47:20;4.60;93.20
12309;DHT22;6217;48.150;17.142;2022-12-10T22:51:26;4.60;93.20
12309;DHT22;6217;48.150;17.142;2022-12-10T22:55:34;4.60;93.20
12309;DHT22;6217;48.150;17.142;2022-12-10T22:59:52;4.60;93.10
12309;DHT22;6217;48.150;17.142;2022-12-10T23:03:57;4.50;93.10
12309;DHT22;6217;48.150;17.142;2022-12-10T23:08:03;4.60;93.20
12309;DHT22;6217;48.150;17.142;2022-12-10T23:12:11;4.60;93.30
12309;DHT22;6217;48.150;17.142;2022-12-10T23:16:47;4.60;93.20
12309;DHT22;6217;48.150;17.142;2022-12-10T23:20:53;4.60;93.60
12309;DHT22;6217;48.150;17.142;2022-12-10T23:25:00;4.60;93.10
12309;DHT22;6217;48.150;17.142;2022-12-10T23:29:14;4.60;93.20
12309;DHT22;6217;48.150;17.142;2022-12-10T23:33:23;4.70;93.20
12309;DHT22;6217;48.150;17.142;2022-12-10T23:37:35;4.70;93.30
12309;DHT22;6217;48.150;17.142;2022-12-10T23:41:41;4.60;93.10
12309;DHT22;6217;48.150;17.142;2022-12-10T23:45:47;4.50;93.00
12309;DHT22;6217;48.150;17.142;2022-12-10T23:49:53;4.70;93.30
12309;DHT22;6217;48.150;17.142;2022-12-10T23:54:02;4.70;93.10
12309;DHT22;6217;48.150;17.142;2022-12-10T23:58:08;4.80;93.10
